Terminal Aerodrome Forecast
Issued by NWS

Home | Current Version | Previous Version | Graphics & Text | Print | Product List | Glossary On
Versions: 1 2 3 4 5 6 7 8 9 10 11 12 13 14 15 16 17 18
000
FTUS43 KGRB 281556 AAB
TAFCWA
TAF AMD
KCWA 281556Z 2816/2912 19011KT P6SM BKN100
     FM281630 16013G23KT 3SM -SHRA BKN045
     FM281900 17010KT P6SM BKN045 OVC100
     FM290200 19006KT 5SM -SHRA OVC035
      TEMPO 2903/2907 2SM TSRA BKN020CB=

USA.gov is the U.S. government's official web portal to all federal, state and local government web resources and services.